Startpagina
METAR-TAF:

METAR-TAF

Vliegvelden :

Flughafen Innsbruck

Innsbruck, Oostenrijk

breedte: 47-16N, lengte: 011-21E, hoogte: 581 m

Actueel weer

Dit bericht is 28 minuten geleden gemaakt, om 17:20 UTC
Wind 13 kt uit het noordoosten
Temperatuur 16°C
Vochtigheid 48%
Druk 1031 hPa
Zicht 10 km of meer
Weinig wolken op 6000 ft
Verspreide wolken op 8000 ft

METAR: LOWI 261720Z 05013KT 9999 FEW060 SCT080 16/05 Q1031 NOSIG

Tijdstip: 19:48 (17:48 UTC)

Verwachting

Dit bericht is 33 minuten geleden gemaakt, om 17:15 UTC
Verwachting geldig van 26 om 18 UTC tot 27 om 18 UTC
Wind 10 kt uit het oosten
Zicht 10 km of meer
Weinig wolken op 6000 ft

TAF: LOWI 261715Z 2618/2718 09010KT 9999 FEW060 TX22/2714Z TN08/2704Z

Waarnemingen en weersverwachtingen van meer dan 4000 vliegvelden (METAR en TAF).

De beschikbare stations zijn de gele en rode punten op de kaart.

Ga met uw muis naar het station om de naam te zien.

Klik dan om waarnemingen en weersverwachtingen te zien.

kaart wijzigen: klik op de groene knoppen met een zwart kruis om in te zoomen, op de groene knop met een streepje om uit te zoomen of op de groene pijlen voor aangrenzende kaarten.


METAR-TAF: